Time;durP1;ratioP1;P1;durP2;ratioP2;P2;SDS_P1;SDS_P2;PMS_P1;PMS_P2;Temp;Humidity;BMP_temperature;BMP_pressure;BME280_temperature;BME280_humidity;BME280_pressure;Samples;Min_cycle;Max_cycle;Signal;HPM_P1;HPM_P2
2022/03/12 00:00:49;;;;;;;24.60;9.52;;;;;;;;;;4935166;29;20028;-60
2022/03/12 00:03:15;;;;;;;21.48;8.98;;;;;;;;;;4934884;29;20031;-65
2022/03/12 00:05:55;;;;;;;20.25;9.85;;;;;;;;;;4935050;29;20036;-61
2022/03/12 06:15:48;;;;;;;53.17;23.02;;;;;;;;;;5189863;23;20078;-60
2022/03/12 06:18:15;;;;;;;60.78;25.75;;;;;;;;;;4971756;28;20037;-61
2022/03/12 06:20:42;;;;;;;51.05;23.15;;;;;;;;;;4971248;28;20011;-60
2022/03/12 06:23:08;;;;;;;56.53;24.88;;;;;;;;;;4971715;28;20033;-60
2022/03/12 06:25:34;;;;;;;55.95;24.55;;;;;;;;;;4971458;28;20470;-60
2022/03/12 06:28:02;;;;;;;59.72;23.73;;;;;;;;;;4971508;28;20043;-59
2022/03/12 06:30:30;;;;;;;46.33;21.85;;;;;;;;;;4971264;28;20026;-60
2022/03/12 06:32:56;;;;;;;49.55;20.88;;;;;;;;;;4971461;28;20023;-60
2022/03/12 06:35:24;;;;;;;49.80;21.13;;;;;;;;;;4970474;28;20061;-60
2022/03/12 06:37:50;;;;;;;45.00;21.30;;;;;;;;;;4952198;28;20039;-60
2022/03/12 06:40:16;;;;;;;47.25;20.08;;;;;;;;;;4952294;29;20126;-61
2022/03/12 06:42:43;;;;;;;42.65;18.92;;;;;;;;;;4951785;29;20415;-60
2022/03/12 06:45:10;;;;;;;38.58;18.35;;;;;;;;;;4951774;29;20039;-60
2022/03/12 06:47:38;;;;;;;44.88;18.23;;;;;;;;;;4951953;29;20027;-60
2022/03/12 06:50:08;;;;;;;34.33;16.77;;;;;;;;;;4951864;29;20110;-60
2022/03/12 06:52:34;;;;;;;42.95;17.35;;;;;;;;;;4951906;29;20030;-61
2022/03/12 06:55:00;;;;;;;41.67;18.58;;;;;;;;;;4958632;28;20023;-60
2022/03/12 06:57:26;;;;;;;40.42;17.95;;;;;;;;;;4970934;28;20089;-60
2022/03/12 06:59:52;;;;;;;43.10;17.75;;;;;;;;;;4971176;28;20034;-60
2022/03/12 07:02:19;;;;;;;42.33;17.95;;;;;;;;;;4970920;28;20430;-60
2022/03/12 07:04:45;;;;;;;34.33;16.77;;;;;;;;;;4970946;28;20483;-61
2022/03/12 07:07:11;;;;;;;39.75;16.05;;;;;;;;;;4971054;28;20054;-61
2022/03/12 07:09:37;;;;;;;39.05;16.90;;;;;;;;;;4971031;28;20058;-61
2022/03/12 07:12:04;;;;;;;37.15;16.65;;;;;;;;;;4970746;28;20019;-60
2022/03/12 07:14:30;;;;;;;32.83;15.52;;;;;;;;;;4975285;28;20502;-60
2022/03/12 07:16:56;;;;;;;38.72;17.55;;;;;;;;;;4990156;28;20049;-60
2022/03/12 07:19:23;;;;;;;40.38;19.10;;;;;;;;;;4990183;28;20022;-60
2022/03/12 07:21:50;;;;;;;41.55;18.17;;;;;;;;;;4971033;28;20044;-60
2022/03/12 07:24:17;;;;;;;42.42;18.92;;;;;;;;;;4970841;28;20070;-59
2022/03/12 07:26:44;;;;;;;40.15;19.13;;;;;;;;;;4970907;28;20027;-60
2022/03/12 07:29:10;;;;;;;42.97;19.17;;;;;;;;;;4952708;28;20058;-60
2022/03/12 07:31:37;;;;;;;39.75;17.65;;;;;;;;;;4970712;28;20065;-61
2022/03/12 07:34:04;;;;;;;38.80;17.80;;;;;;;;;;4970706;28;20026;-59
2022/03/12 07:36:30;;;;;;;38.47;18.42;;;;;;;;;;4953190;28;20039;-59
2022/03/12 07:38:58;;;;;;;43.60;19.13;;;;;;;;;;4970484;28;20070;-60
2022/03/12 07:41:24;;;;;;;40.30;18.08;;;;;;;;;;4970852;28;20102;-61
2022/03/12 07:43:51;;;;;;;35.40;17.27;;;;;;;;;;4970255;28;20034;-61
2022/03/12 07:46:17;;;;;;;44.17;17.52;;;;;;;;;;4970681;28;20038;-61
2022/03/12 07:48:43;;;;;;;38.15;17.80;;;;;;;;;;4970614;28;20023;-61
2022/03/12 07:51:10;;;;;;;39.88;17.20;;;;;;;;;;4974243;28;20035;-61
2022/03/12 07:53:36;;;;;;;38.97;17.98;;;;;;;;;;4981365;28;20030;-60
2022/03/12 07:56:03;;;;;;;40.78;18.27;;;;;;;;;;4987674;28;20022;-62
2022/03/12 07:58:30;;;;;;;41.35;20.25;;;;;;;;;;4984369;28;20397;-63
2022/03/12 08:00:58;;;;;;;42.75;19.73;;;;;;;;;;4982130;28;20046;-61
2022/03/12 08:03:24;;;;;;;36.55;18.35;;;;;;;;;;4982924;28;20022;-63
2022/03/12 08:05:51;;;;;;;38.45;19.20;;;;;;;;;;4982944;28;20027;-63
2022/03/12 08:08:20;;;;;;;40.97;18.67;;;;;;;;;;4963599;28;20114;-63
2022/03/12 08:13:31;;;;;;;34.42;15.88;;;;;;;;;;4980606;28;20034;-62
2022/03/12 08:15:58;;;;;;;36.00;16.77;;;;;;;;;;4973249;28;20058;-62
2022/03/12 08:18:24;;;;;;;38.15;16.15;;;;;;;;;;4987697;28;20481;-64
2022/03/12 08:20:50;;;;;;;34.17;15.77;;;;;;;;;;4992217;28;20497;-65
2022/03/12 08:23:17;;;;;;;37.20;16.88;;;;;;;;;;4992843;28;20038;-61
2022/03/12 08:25:43;;;;;;;32.55;16.08;;;;;;;;;;4992889;28;20041;-63
2022/03/12 08:28:09;;;;;;;33.63;15.60;;;;;;;;;;4982708;28;20022;-61
2022/03/12 08:30:36;;;;;;;34.55;15.63;;;;;;;;;;4986440;28;20038;-61
2022/03/12 08:33:02;;;;;;;36.05;16.45;;;;;;;;;;4982121;28;20442;-63
2022/03/12 08:35:28;;;;;;;36.97;16.95;;;;;;;;;;4991726;28;20466;-60
2022/03/12 08:37:54;;;;;;;39.72;17.13;;;;;;;;;;4987840;28;20023;-59
2022/03/12 08:40:20;;;;;;;39.72;17.42;;;;;;;;;;4972734;28;20038;-59
2022/03/12 08:42:46;;;;;;;40.30;18.80;;;;;;;;;;4983938;28;20030;-60
2022/03/12 08:45:12;;;;;;;44.20;18.80;;;;;;;;;;4980656;28;20047;-61
2022/03/12 08:47:40;;;;;;;44.58;19.75;;;;;;;;;;4983346;28;20067;-64
2022/03/12 08:50:09;;;;;;;41.40;19.70;;;;;;;;;;4976928;28;20501;-63
2022/03/12 08:52:36;;;;;;;40.65;19.83;;;;;;;;;;4974803;28;20057;-62
2022/03/12 08:55:02;;;;;;;43.65;20.30;;;;;;;;;;4980654;28;20043;-62
2022/03/12 08:57:28;;;;;;;40.25;20.15;;;;;;;;;;4980155;28;20030;-61
2022/03/12 08:59:54;;;;;;;44.83;20.17;;;;;;;;;;4982748;28;20053;-62
2022/03/12 09:02:21;;;;;;;40.70;19.85;;;;;;;;;;4979347;28;20038;-63
2022/03/12 09:04:47;;;;;;;46.83;20.88;;;;;;;;;;4980443;28;20038;-62
2022/03/12 09:07:13;;;;;;;42.78;20.02;;;;;;;;;;4979640;28;20025;-62
2022/03/12 09:09:39;;;;;;;44.00;20.02;;;;;;;;;;4976494;28;20066;-62
2022/03/12 09:12:06;;;;;;;46.95;21.15;;;;;;;;;;4972688;28;20089;-62
2022/03/12 09:14:35;;;;;;;43.38;20.45;;;;;;;;;;4971990;28;20129;-61
2022/03/12 09:17:02;;;;;;;40.75;20.45;;;;;;;;;;4972326;28;20032;-62
2022/03/12 09:19:28;;;;;;;48.05;21.15;;;;;;;;;;4978029;28;20019;-61
2022/03/12 09:21:56;;;;;;;42.95;20.20;;;;;;;;;;4990122;28;20038;-62
2022/03/12 09:24:22;;;;;;;40.20;19.60;;;;;;;;;;4991630;28;20031;-62
2022/03/12 09:26:49;;;;;;;47.50;20.55;;;;;;;;;;4988306;28;20026;-62
2022/03/12 09:29:15;;;;;;;43.00;20.48;;;;;;;;;;4979868;28;20026;-63
2022/03/12 09:31:41;;;;;;;42.80;21.55;;;;;;;;;;4980588;28;20018;-63
2022/03/12 09:34:07;;;;;;;45.30;21.05;;;;;;;;;;4987793;28;20041;-64
2022/03/12 09:36:36;;;;;;;46.55;22.65;;;;;;;;;;4980796;28;20490;-63
2022/03/12 09:39:03;;;;;;;39.13;19.25;;;;;;;;;;4982324;28;20132;-60
2022/03/12 09:41:29;;;;;;;42.90;19.95;;;;;;;;;;4991271;28;20030;-63
2022/03/12 09:43:56;;;;;;;46.10;21.58;;;;;;;;;;4990809;28;20122;-62
2022/03/12 09:46:22;;;;;;;46.38;20.70;;;;;;;;;;4979081;28;20544;-61
2022/03/12 09:48:48;;;;;;;39.58;19.73;;;;;;;;;;4978043;28;20130;-61
2022/03/12 09:51:15;;;;;;;44.03;20.10;;;;;;;;;;4978578;28;20031;-63
2022/03/12 09:53:41;;;;;;;38.75;19.77;;;;;;;;;;4980824;28;20049;-62
2022/03/12 09:56:07;;;;;;;45.85;21.15;;;;;;;;;;4978641;28;20030;-61
2022/03/12 09:58:33;;;;;;;41.85;21.38;;;;;;;;;;4988078;28;20041;-62
2022/03/12 10:00:59;;;;;;;43.80;21.02;;;;;;;;;;4971262;28;20514;-61
2022/03/12 10:03:25;;;;;;;47.65;22.10;;;;;;;;;;4989482;28;20042;-62
2022/03/12 10:05:52;;;;;;;43.42;21.05;;;;;;;;;;4983307;28;20032;-60
2022/03/12 10:08:18;;;;;;;43.55;21.02;;;;;;;;;;4963535;28;20018;-61
2022/03/12 10:10:44;;;;;;;44.88;21.40;;;;;;;;;;4978641;28;20029;-65
2022/03/12 10:13:11;;;;;;;43.10;20.95;;;;;;;;;;4972465;28;20077;-63
2022/03/12 10:15:37;;;;;;;46.00;20.50;;;;;;;;;;4956063;28;20047;-65
2022/03/12 10:18:04;;;;;;;41.92;19.85;;;;;;;;;;4972785;28;20041;-61
2022/03/12 10:20:31;;;;;;;40.33;18.48;;;;;;;;;;4970700;28;20070;-62
2022/03/12 10:22:57;;;;;;;39.80;19.58;;;;;;;;;;4970874;28;20026;-60
2022/03/12 10:25:23;;;;;;;34.97;18.00;;;;;;;;;;4981328;28;20039;-62
2022/03/12 10:27:50;;;;;;;36.97;17.30;;;;;;;;;;4986958;28;20061;-61
2022/03/12 10:30:16;;;;;;;36.40;18.05;;;;;;;;;;4989956;28;20541;-64
2022/03/12 10:32:48;;;;;;;33.78;17.08;;;;;;;;;;4982119;28;20122;-63
2022/03/12 10:35:19;;;;;;;36.85;17.63;;;;;;;;;;4978049;28;20684;-61
2022/03/12 10:37:46;;;;;;;37.92;17.50;;;;;;;;;;4973279;28;20034;-62
2022/03/12 10:40:16;;;;;;;35.00;17.60;;;;;;;;;;4988381;28;20057;-62
2022/03/12 10:42:45;;;;;;;39.03;17.88;;;;;;;;;;4989918;28;20061;-64
2022/03/12 10:45:14;;;;;;;36.85;17.63;;;;;;;;;;4990008;28;20155;-60
2022/03/12 10:47:41;;;;;;;38.70;17.98;;;;;;;;;;4989939;28;20038;-62
2022/03/12 10:50:10;;;;;;;31.73;17.50;;;;;;;;;;4990151;28;20053;-61
2022/03/12 10:52:41;;;;;;;36.50;17.25;;;;;;;;;;4990237;28;20482;-62
2022/03/12 10:55:11;;;;;;;33.88;17.30;;;;;;;;;;4990282;28;20060;-61
2022/03/12 10:57:38;;;;;;;34.50;18.25;;;;;;;;;;4990260;28;20109;-60
2022/03/12 11:00:09;;;;;;;39.40;18.25;;;;;;;;;;4986859;28;20026;-61
2022/03/12 11:02:35;;;;;;;45.95;23.95;;;;;;;;;;4989995;28;20058;-62
2022/03/12 11:05:03;;;;;;;37.50;18.05;;;;;;;;;;4982020;28;20042;-61
2022/03/12 11:07:30;;;;;;;41.30;19.60;;;;;;;;;;4971605;28;20533;-68
2022/03/12 11:09:57;;;;;;;39.22;19.77;;;;;;;;;;4990230;28;20034;-61
2022/03/12 11:12:35;;;;;;;40.97;20.13;;;;;;;;;;4990560;28;20153;-61
2022/03/12 11:15:14;;;;;;;43.17;20.95;;;;;;;;;;4989534;28;20786;-60
2022/03/12 11:17:44;;;;;;;59.00;28.23;;;;;;;;;;4990095;28;20176;-60
2022/03/12 11:20:17;;;;;;;46.67;21.73;;;;;;;;;;4989871;28;20117;-60
2022/03/12 11:22:47;;;;;;;36.70;18.80;;;;;;;;;;4989722;28;20043;-60
2022/03/12 11:25:15;;;;;;;33.33;17.17;;;;;;;;;;4991843;28;20072;-60
2022/03/12 11:27:43;;;;;;;37.28;17.65;;;;;;;;;;4993563;28;20018;-60
2022/03/12 11:30:09;;;;;;;37.83;17.63;;;;;;;;;;4993522;28;20045;-60
2022/03/12 11:32:42;;;;;;;36.13;18.45;;;;;;;;;;4975778;28;20029;-61
2022/03/12 11:35:08;;;;;;;;;;;;;;;;;;4993756;28;20018;-61
2022/03/12 11:37:36;;;;;;;38.70;19.17;;;;;;;;;;4993311;28;20376;-60
2022/03/12 11:40:04;;;;;;;39.80;18.80;;;;;;;;;;4993433;28;20022;-61
2022/03/12 11:42:34;;;;;;;37.22;19.02;;;;;;;;;;4993474;28;20030;-61
2022/03/12 11:45:02;;;;;;;37.03;16.13;;;;;;;;;;4993393;28;20157;-60
2022/03/12 11:47:30;;;;;;;30.75;16.25;;;;;;;;;;4993585;28;20026;-60
2022/03/12 11:49:57;;;;;;;34.22;17.58;;;;;;;;;;4993392;28;20030;-60
2022/03/12 11:52:23;;;;;;;50.95;23.63;;;;;;;;;;4993210;28;20467;-60
2022/03/12 11:54:54;;;;;;;37.53;17.50;;;;;;;;;;4993522;28;20026;-59
2022/03/12 11:57:24;;;;;;;56.85;26.35;;;;;;;;;;4993515;28;20030;-59
2022/03/12 11:59:51;;;;;;;35.92;17.95;;;;;;;;;;4993272;28;20041;-60
2022/03/12 12:02:30;;;;;;;32.53;15.80;;;;;;;;;;4993223;28;20549;-60
2022/03/12 12:04:58;;;;;;;34.55;17.10;;;;;;;;;;4993236;28;20074;-61
2022/03/12 12:07:25;;;;;;;33.25;16.15;;;;;;;;;;4993001;28;20022;-60
2022/03/12 12:09:51;;;;;;;37.05;16.20;;;;;;;;;;4993260;28;20033;-60
2022/03/12 12:12:21;;;;;;;33.75;16.17;;;;;;;;;;4992851;28;20438;-60
2022/03/12 12:14:47;;;;;;;33.28;16.98;;;;;;;;;;4992495;28;20030;-60
2022/03/12 12:17:13;;;;;;;34.45;16.65;;;;;;;;;;4992721;28;20043;-60
2022/03/12 12:19:39;;;;;;;36.88;17.63;;;;;;;;;;4993386;28;20022;-60
2022/03/12 12:22:09;;;;;;;33.95;16.27;;;;;;;;;;4993135;28;20125;-61
2022/03/12 12:24:39;;;;;;;35.35;17.33;;;;;;;;;;4992925;28;20474;-60
2022/03/12 12:27:09;;;;;;;32.15;17.15;;;;;;;;;;4992969;28;20026;-60
2022/03/12 12:29:48;;;;;;;33.05;16.58;;;;;;;;;;4993056;28;20085;-60
2022/03/12 12:32:16;;;;;;;36.40;18.83;;;;;;;;;;4992510;28;20046;-60
2022/03/12 12:35:06;;;;;;;43.30;21.92;;;;;;;;;;4992717;28;20034;-60
2022/03/12 12:37:44;;;;;;;38.38;18.45;;;;;;;;;;4991882;28;20022;-60
2022/03/12 12:40:32;;;;;;;48.60;23.25;;;;;;;;;;4992651;28;20113;-60
2022/03/12 12:43:00;;;;;;;48.20;22.35;;;;;;;;;;4992432;28;20038;-60
2022/03/12 12:45:28;;;;;;;42.70;21.23;;;;;;;;;;4991768;28;20077;-60
2022/03/12 12:48:05;;;;;;;52.80;23.17;;;;;;;;;;4992647;28;20049;-59
2022/03/12 12:50:32;;;;;;;39.35;19.40;;;;;;;;;;4992060;28;20026;-60
2022/03/12 12:53:10;;;;;;;40.63;18.55;;;;;;;;;;4992098;28;20482;-60
2022/03/12 12:55:37;;;;;;;37.70;19.17;;;;;;;;;;4991999;28;20117;-61
2022/03/12 12:58:03;;;;;;;44.25;20.88;;;;;;;;;;4992294;28;20022;-59
2022/03/12 13:00:38;;;;;;;30.25;15.60;;;;;;;;;;4992126;28;20044;-59
2022/03/12 13:03:14;;;;;;;28.52;14.63;;;;;;;;;;4992176;28;20038;-59
2022/03/12 13:05:43;;;;;;;29.13;15.10;;;;;;;;;;4992377;28;20035;-61
2022/03/12 13:08:10;;;;;;;33.83;15.70;;;;;;;;;;4992221;28;20089;-61
2022/03/12 13:10:36;;;;;;;44.60;21.38;;;;;;;;;;4991861;28;20422;-61
2022/03/12 13:13:20;;;;;;;31.85;14.73;;;;;;;;;;4992186;28;20430;-61
2022/03/12 13:15:51;;;;;;;38.42;18.08;;;;;;;;;;4991795;28;20478;-61
2022/03/12 13:18:19;;;;;;;58.20;21.27;;;;;;;;;;4991915;28;20026;-62
2022/03/12 13:20:46;;;;;;;38.95;18.08;;;;;;;;;;4991835;28;20027;-61
2022/03/12 13:23:14;;;;;;;31.77;16.40;;;;;;;;;;4991828;28;20026;-61
2022/03/12 13:25:51;;;;;;;32.60;17.10;;;;;;;;;;4991767;28;20026;-59
2022/03/12 13:28:39;;;;;;;29.98;15.63;;;;;;;;;;4991998;28;20026;-59
2022/03/12 13:31:16;;;;;;;31.33;15.18;;;;;;;;;;4991632;28;20042;-59
2022/03/12 13:33:43;;;;;;;114.20;49.60;;;;;;;;;;4991796;28;20030;-59
2022/03/12 13:36:23;;;;;;;28.42;14.68;;;;;;;;;;4991379;28;20022;-59
2022/03/12 13:38:51;;;;;;;33.13;17.27;;;;;;;;;;4991835;28;20493;-59
2022/03/12 13:41:18;;;;;;;33.40;14.50;;;;;;;;;;4991188;28;20657;-59
2022/03/12 13:43:44;;;;;;;32.97;14.32;;;;;;;;;;4973855;28;20509;-59
2022/03/12 13:46:12;;;;;;;28.80;14.90;;;;;;;;;;4990893;28;20042;-60
2022/03/12 13:48:38;;;;;;;24.65;13.07;;;;;;;;;;4991146;28;20018;-60
2022/03/12 13:51:05;;;;;;;30.95;13.95;;;;;;;;;;4990596;28;20057;-60
2022/03/12 13:53:31;;;;;;;29.33;12.52;;;;;;;;;;4991109;28;20026;-60
2022/03/12 13:56:18;;;;;;;25.85;12.60;;;;;;;;;;4990915;28;20035;-59
2022/03/12 13:58:46;;;;;;;26.45;13.45;;;;;;;;;;4990857;28;20105;-63
2022/03/12 14:01:29;;;;;;;23.40;13.02;;;;;;;;;;4973483;28;20122;-61
2022/03/12 14:03:55;;;;;;;29.38;14.20;;;;;;;;;;4990670;28;20034;-60
2022/03/12 14:06:28;;;;;;;28.23;13.82;;;;;;;;;;4990818;28;20077;-60
2022/03/12 14:08:56;;;;;;;25.55;13.23;;;;;;;;;;4990936;28;20074;-62
2022/03/12 14:11:34;;;;;;;30.10;15.40;;;;;;;;;;4973317;28;20385;-61
2022/03/12 14:14:08;;;;;;;43.13;18.95;;;;;;;;;;4990832;28;20810;-61
2022/03/12 14:16:39;;;;;;;29.25;14.95;;;;;;;;;;4990850;28;20498;-61
2022/03/12 14:19:06;;;;;;;25.67;13.48;;;;;;;;;;4990836;28;20053;-61
2022/03/12 14:21:36;;;;;;;24.67;13.30;;;;;;;;;;4990286;28;20034;-62
2022/03/12 14:24:15;;;;;;;26.67;13.32;;;;;;;;;;4990573;28;20732;-61
2022/03/12 14:26:45;;;;;;;26.42;13.43;;;;;;;;;;4990737;28;20067;-61
2022/03/12 14:29:11;;;;;;;22.83;13.07;;;;;;;;;;4990731;28;20113;-61
2022/03/12 14:31:37;;;;;;;26.70;13.02;;;;;;;;;;4990790;28;20033;-61
2022/03/12 14:34:05;;;;;;;26.38;13.63;;;;;;;;;;4990521;28;20109;-61
2022/03/12 14:36:35;;;;;;;32.42;15.10;;;;;;;;;;4990558;28;20134;-61
2022/03/12 14:39:01;;;;;;;24.05;12.73;;;;;;;;;;4990508;28;20022;-59
2022/03/12 14:41:30;;;;;;;22.98;12.13;;;;;;;;;;4990423;28;20534;-61
2022/03/12 14:43:56;;;;;;;24.80;13.10;;;;;;;;;;4990444;28;20115;-61
2022/03/12 14:46:23;;;;;;;25.70;14.05;;;;;;;;;;4989976;28;20072;-61
2022/03/12 14:48:49;;;;;;;26.00;13.57;;;;;;;;;;4990238;28;20042;-61
2022/03/12 14:51:16;;;;;;;25.30;13.23;;;;;;;;;;4972603;28;20435;-62
2022/03/12 14:53:48;;;;;;;30.10;15.68;;;;;;;;;;4990351;28;20030;-61
2022/03/12 14:56:15;;;;;;;44.10;20.13;;;;;;;;;;4990367;28;20034;-60
2022/03/12 14:58:41;;;;;;;26.52;14.23;;;;;;;;;;4990381;28;20062;-60
2022/03/12 15:01:09;;;;;;;55.42;25.30;;;;;;;;;;4993960;28;20367;-61
2022/03/12 15:03:35;;;;;;;31.75;16.13;;;;;;;;;;4994528;28;20045;-61
2022/03/12 15:06:01;;;;;;;34.20;16.25;;;;;;;;;;4994207;28;20181;-60
2022/03/12 15:08:28;;;;;;;28.52;15.00;;;;;;;;;;4994412;28;20026;-61
2022/03/12 15:11:08;;;;;;;23.30;12.38;;;;;;;;;;4994297;28;20026;-61
2022/03/12 15:13:41;;;;;;;24.85;13.57;;;;;;;;;;4994008;28;20022;-61
2022/03/12 15:16:08;;;;;;;31.90;15.45;;;;;;;;;;4993832;28;20062;-61
2022/03/12 15:18:36;;;;;;;35.80;16.65;;;;;;;;;;4993918;28;20494;-60
2022/03/12 15:21:14;;;;;;;26.50;13.50;;;;;;;;;;4993658;28;20030;-60
2022/03/12 15:23:44;;;;;;;31.45;14.88;;;;;;;;;;4993699;28;20038;-60
2022/03/12 15:26:10;;;;;;;27.58;13.30;;;;;;;;;;4976004;28;20041;-60
2022/03/12 15:28:37;;;;;;;37.55;18.08;;;;;;;;;;4994067;28;20495;-61
2022/03/12 15:31:11;;;;;;;48.15;20.67;;;;;;;;;;4994102;28;20109;-61
2022/03/12 15:33:38;;;;;;;24.13;11.77;;;;;;;;;;4993941;28;20428;-61
2022/03/12 15:36:08;;;;;;;28.83;13.23;;;;;;;;;;4993884;28;20026;-62
2022/03/12 15:38:34;;;;;;;26.17;13.60;;;;;;;;;;4993342;28;20018;-61
2022/03/12 15:41:00;;;;;;;61.92;26.88;;;;;;;;;;4993650;28;20113;-66
2022/03/12 15:43:26;;;;;;;53.05;23.42;;;;;;;;;;4993556;28;20022;-61
2022/03/12 15:45:54;;;;;;;26.10;13.35;;;;;;;;;;4993262;28;20046;-60
2022/03/12 15:48:20;;;;;;;30.92;13.98;;;;;;;;;;4993433;28;20026;-60
2022/03/12 15:50:46;;;;;;;28.73;13.70;;;;;;;;;;4993424;28;20042;-60
2022/03/12 15:53:13;;;;;;;28.98;14.90;;;;;;;;;;4993546;28;20034;-60
2022/03/12 15:55:39;;;;;;;33.92;17.42;;;;;;;;;;4993421;28;20081;-61
2022/03/12 15:58:09;;;;;;;33.88;16.33;;;;;;;;;;4993273;28;20026;-60
2022/03/12 16:00:37;;;;;;;30.92;16.17;;;;;;;;;;4993180;28;20030;-59
2022/03/12 16:03:03;;;;;;;30.08;15.23;;;;;;;;;;4993024;28;20031;-64
2022/03/12 16:05:29;;;;;;;33.38;15.35;;;;;;;;;;4992990;28;20038;-61
2022/03/12 16:07:56;;;;;;;30.85;15.15;;;;;;;;;;4992943;28;20090;-64
2022/03/12 16:10:22;;;;;;;35.75;17.40;;;;;;;;;;4992742;28;20097;-62
2022/03/12 16:12:49;;;;;;;27.33;13.57;;;;;;;;;;4993237;28;20034;-60
2022/03/12 16:15:17;;;;;;;24.83;12.43;;;;;;;;;;4992520;28;20058;-64
2022/03/12 16:17:49;;;;;;;21.13;10.75;;;;;;;;;;4992858;28;20101;-60
2022/03/12 16:20:15;;;;;;;;;;;;;;;;;;4993230;28;20023;-60
2022/03/12 16:22:42;;;;;;;31.85;16.20;;;;;;;;;;4992842;28;19999;-59
2022/03/12 16:25:09;;;;;;;46.70;24.95;;;;;;;;;;4975118;28;20130;-64
2022/03/12 16:27:36;;;;;;;43.08;21.83;;;;;;;;;;4988378;28;20037;-63
2022/03/12 16:30:04;;;;;;;37.13;19.40;;;;;;;;;;4964799;28;20501;-64
2022/03/12 16:32:30;;;;;;;41.42;21.15;;;;;;;;;;4973385;28;20035;-65
2022/03/12 16:34:56;;;;;;;41.72;20.60;;;;;;;;;;4973542;28;20045;-67
2022/03/12 16:37:23;;;;;;;48.08;23.58;;;;;;;;;;4973729;28;20081;-61
2022/03/12 16:39:49;;;;;;;43.03;22.52;;;;;;;;;;4973301;28;20023;-62
2022/03/12 16:42:17;;;;;;;59.05;28.40;;;;;;;;;;4977398;28;20142;-60
2022/03/12 16:44:45;;;;;;;50.40;23.40;;;;;;;;;;4981547;28;20030;-66
2022/03/12 16:47:15;;;;;;;50.20;23.63;;;;;;;;;;4981931;28;20035;-63
2022/03/12 16:49:48;;;;;;;56.97;26.48;;;;;;;;;;4980792;28;20036;-60
2022/03/12 16:52:18;;;;;;;68.03;30.52;;;;;;;;;;4979955;28;20509;-58
2022/03/12 16:54:45;;;;;;;67.85;32.35;;;;;;;;;;4964925;28;20508;-63
2022/03/12 16:57:12;;;;;;;59.55;27.45;;;;;;;;;;4983136;28;20038;-62
2022/03/12 16:59:38;;;;;;;49.20;23.90;;;;;;;;;;4982120;28;20035;-67
2022/03/12 17:02:05;;;;;;;48.50;24.05;;;;;;;;;;4986014;28;20182;-65
2022/03/12 17:04:31;;;;;;;52.72;24.23;;;;;;;;;;4992011;28;20444;-63
2022/03/12 17:06:58;;;;;;;54.25;26.73;;;;;;;;;;4991892;28;20474;-65
2022/03/12 17:09:24;;;;;;;65.63;29.73;;;;;;;;;;4992004;28;20057;-65
2022/03/12 17:11:50;;;;;;;66.00;30.38;;;;;;;;;;4973979;28;20041;-64
2022/03/12 17:14:17;;;;;;;66.18;29.95;;;;;;;;;;4991739;28;20389;-66
2022/03/12 17:16:48;;;;;;;61.28;30.02;;;;;;;;;;4975183;28;20478;-63
2022/03/12 17:19:15;;;;;;;59.15;27.17;;;;;;;;;;4990942;28;20548;-67
2022/03/12 17:21:47;;;;;;;71.10;31.67;;;;;;;;;;4990993;28;20361;-62
2022/03/12 17:24:15;;;;;;;88.22;38.00;;;;;;;;;;4991443;28;20040;-65
2022/03/12 17:26:42;;;;;;;91.57;41.13;;;;;;;;;;4991609;28;20026;-64
2022/03/12 17:29:09;;;;;;;90.40;39.88;;;;;;;;;;4974233;28;20038;-67
2022/03/12 17:31:35;;;;;;;86.80;41.08;;;;;;;;;;4990985;28;20441;-63
2022/03/12 17:34:06;;;;;;;90.03;41.78;;;;;;;;;;4991453;28;20109;-62
2022/03/12 17:36:34;;;;;;;105.55;45.88;;;;;;;;;;4991587;28;20113;-63
2022/03/12 17:39:00;;;;;;;111.22;50.15;;;;;;;;;;4992777;28;20093;-68
2022/03/12 17:41:28;;;;;;;139.27;64.10;;;;;;;;;;4973742;28;20034;-66
2022/03/12 17:43:54;;;;;;;153.70;64.72;;;;;;;;;;4991000;28;20089;-65
2022/03/12 17:46:21;;;;;;;138.27;62.45;;;;;;;;;;4990916;28;20061;-65
2022/03/12 17:48:48;;;;;;;149.55;69.68;;;;;;;;;;4991185;28;20018;-63
2022/03/12 17:51:16;;;;;;;152.27;71.28;;;;;;;;;;4991328;28;20022;-62
2022/03/12 17:53:43;;;;;;;154.05;70.93;;;;;;;;;;4991283;28;20018;-63
2022/03/12 17:56:09;;;;;;;163.20;71.70;;;;;;;;;;4984468;28;20022;-63
2022/03/12 17:58:36;;;;;;;169.45;76.82;;;;;;;;;;4977129;28;20027;-61
2022/03/12 18:01:02;;;;;;;171.13;78.43;;;;;;;;;;4971444;28;20073;-62
2022/03/12 18:03:28;;;;;;;178.10;78.03;;;;;;;;;;4971047;28;20035;-64
2022/03/12 18:05:54;;;;;;;178.98;80.55;;;;;;;;;;4972153;28;20023;-61
2022/03/12 18:08:22;;;;;;;180.15;81.35;;;;;;;;;;4971342;28;20023;-62
2022/03/12 18:10:48;;;;;;;203.20;88.72;;;;;;;;;;4971933;28;20031;-63
2022/03/12 18:13:18;;;;;;;181.23;80.78;;;;;;;;;;4971851;28;20049;-61
2022/03/12 18:15:45;;;;;;;202.00;90.60;;;;;;;;;;4971223;28;20057;-62
2022/03/12 18:18:14;;;;;;;160.40;72.93;;;;;;;;;;4971030;28;20023;-61
2022/03/12 18:20:40;;;;;;;164.30;73.72;;;;;;;;;;4971279;28;20549;-62
2022/03/12 18:23:06;;;;;;;185.30;80.47;;;;;;;;;;4971676;28;20087;-62
2022/03/12 18:25:35;;;;;;;206.30;90.68;;;;;;;;;;4971413;28;20033;-61
2022/03/12 18:28:01;;;;;;;214.00;90.97;;;;;;;;;;4971317;28;20046;-63
2022/03/12 18:30:27;;;;;;;155.60;68.30;;;;;;;;;;4972489;28;20433;-61
2022/03/12 18:32:55;;;;;;;170.43;76.47;;;;;;;;;;4971457;28;20027;-60
2022/03/12 18:35:22;;;;;;;129.13;59.63;;;;;;;;;;4954400;28;20078;-62
2022/03/12 18:37:48;;;;;;;143.35;63.05;;;;;;;;;;4989027;28;20025;-63
2022/03/12 18:40:20;;;;;;;144.27;64.63;;;;;;;;;;4987660;28;20393;-61
2022/03/12 18:42:51;;;;;;;152.18;69.40;;;;;;;;;;4988672;28;20018;-60
2022/03/12 18:45:18;;;;;;;179.23;81.07;;;;;;;;;;4969618;28;20049;-63
2022/03/12 18:47:44;;;;;;;177.55;75.35;;;;;;;;;;4973978;28;20535;-61
2022/03/12 18:50:14;;;;;;;182.35;81.68;;;;;;;;;;4979041;28;20642;-63
2022/03/12 18:52:40;;;;;;;177.43;78.70;;;;;;;;;;4980109;28;20363;-61
2022/03/12 18:55:07;;;;;;;165.32;72.93;;;;;;;;;;4962730;28;20046;-62
2022/03/12 18:57:34;;;;;;;159.68;72.93;;;;;;;;;;4981234;28;20113;-62
2022/03/12 19:00:03;;;;;;;172.25;76.90;;;;;;;;;;4982544;28;20173;-64
2022/03/12 19:02:30;;;;;;;143.20;63.03;;;;;;;;;;4947818;28;20022;-61
2022/03/12 19:04:56;;;;;;;151.70;66.70;;;;;;;;;;4982031;28;20069;-60
2022/03/12 19:07:23;;;;;;;155.68;72.07;;;;;;;;;;4972418;28;20030;-62
2022/03/12 19:09:49;;;;;;;171.98;74.93;;;;;;;;;;4990186;28;20084;-60
2022/03/12 19:12:16;;;;;;;170.95;75.45;;;;;;;;;;4990163;28;20482;-61
2022/03/12 19:14:42;;;;;;;162.35;72.10;;;;;;;;;;4983981;28;20589;-65
2022/03/12 19:17:09;;;;;;;155.70;70.70;;;;;;;;;;4979459;28;20042;-61
2022/03/12 19:19:35;;;;;;;135.20;60.85;;;;;;;;;;4978504;28;20066;-62
2022/03/12 19:22:03;;;;;;;163.95;67.07;;;;;;;;;;4989876;28;20034;-62
2022/03/12 19:24:30;;;;;;;145.88;64.78;;;;;;;;;;4979911;28;20039;-62
2022/03/12 19:26:56;;;;;;;127.82;56.05;;;;;;;;;;4985335;28;20037;-61
2022/03/12 19:29:23;;;;;;;116.00;51.53;;;;;;;;;;4971018;28;20026;-61
2022/03/12 19:31:49;;;;;;;122.03;53.58;;;;;;;;;;4953399;28;20398;-62
2022/03/12 19:34:16;;;;;;;117.85;54.28;;;;;;;;;;4970679;28;20089;-63
2022/03/12 19:36:43;;;;;;;113.32;52.97;;;;;;;;;;4983708;28;20061;-64
2022/03/12 19:39:12;;;;;;;117.72;53.53;;;;;;;;;;4975800;28;20030;-64
2022/03/12 19:41:40;;;;;;;127.38;56.17;;;;;;;;;;4971149;28;20034;-63
2022/03/12 19:44:07;;;;;;;127.53;55.75;;;;;;;;;;4978904;28;20043;-60
2022/03/12 19:46:33;;;;;;;115.38;51.20;;;;;;;;;;4974696;28;20821;-60
2022/03/12 19:48:59;;;;;;;124.25;56.53;;;;;;;;;;4976927;28;20419;-61
2022/03/12 19:51:25;;;;;;;134.85;61.35;;;;;;;;;;4993152;28;20023;-62
2022/03/12 19:53:51;;;;;;;157.82;72.13;;;;;;;;;;4994126;28;20022;-61
2022/03/12 19:56:27;;;;;;;155.23;70.45;;;;;;;;;;4988908;28;20038;-64
2022/03/12 19:58:53;;;;;;;141.57;60.03;;;;;;;;;;4981823;28;20700;-62
2022/03/12 20:01:20;;;;;;;172.43;77.35;;;;;;;;;;4979055;28;20039;-63
2022/03/12 20:03:46;;;;;;;178.93;78.45;;;;;;;;;;4983643;28;20045;-62
2022/03/12 20:06:15;;;;;;;190.88;83.60;;;;;;;;;;4983983;28;20054;-64
2022/03/12 20:08:43;;;;;;;194.07;85.00;;;;;;;;;;4982702;28;20034;-60
2022/03/12 20:11:10;;;;;;;161.43;71.30;;;;;;;;;;4960248;28;20023;-63
2022/03/12 20:13:37;;;;;;;151.95;65.68;;;;;;;;;;4981893;28;20084;-61
2022/03/12 20:16:07;;;;;;;141.77;64.38;;;;;;;;;;4983335;28;20061;-62
2022/03/12 20:18:37;;;;;;;146.93;64.45;;;;;;;;;;4966589;28;20401;-62
2022/03/12 20:21:05;;;;;;;145.65;65.85;;;;;;;;;;4983171;28;20034;-64
2022/03/12 20:23:31;;;;;;;142.23;64.47;;;;;;;;;;4982265;28;20033;-63
2022/03/12 20:25:58;;;;;;;162.50;69.07;;;;;;;;;;4983062;28;20365;-60
2022/03/12 20:28:29;;;;;;;158.98;67.70;;;;;;;;;;4984254;28;20529;-60
2022/03/12 20:30:57;;;;;;;149.93;67.15;;;;;;;;;;4983059;28;20446;-64